sensor_id;sensor_type;location;lat;lon;timestamp;P1;durP1;ratioP1;P2;durP2;ratioP2
41141;SDS011;63666;52.284;20.890;2023-05-10T00:01:22;6.60;;;4.40;;
41141;SDS011;63666;52.284;20.890;2023-05-10T00:03:57;6.50;;;3.90;;
41141;SDS011;63666;52.284;20.890;2023-05-10T00:06:33;6.30;;;4.10;;
41141;SDS011;63666;52.284;20.890;2023-05-10T00:09:08;5.80;;;3.80;;
41141;SDS011;63666;52.284;20.890;2023-05-10T00:11:42;6.40;;;4.10;;
41141;SDS011;63666;52.284;20.890;2023-05-10T00:14:18;6.80;;;4.10;;
41141;SDS011;63666;52.284;20.890;2023-05-10T00:16:55;6.30;;;3.80;;
41141;SDS011;63666;52.284;20.890;2023-05-10T00:19:29;5.90;;;3.90;;
41141;SDS011;63666;52.284;20.890;2023-05-10T00:22:03;5.70;;;4.10;;
41141;SDS011;63666;52.284;20.890;2023-05-10T00:24:38;6.10;;;4.00;;
41141;SDS011;63666;52.284;20.890;2023-05-10T00:27:15;6.80;;;3.90;;
41141;SDS011;63666;52.284;20.890;2023-05-10T00:29:49;6.30;;;4.10;;
41141;SDS011;63666;52.284;20.890;2023-05-10T00:32:24;6.00;;;3.90;;
41141;SDS011;63666;52.284;20.890;2023-05-10T00:34:59;6.50;;;4.00;;
41141;SDS011;63666;52.284;20.890;2023-05-10T00:37:34;5.20;;;3.70;;
41141;SDS011;63666;52.284;20.890;2023-05-10T00:40:09;5.80;;;3.90;;
41141;SDS011;63666;52.284;20.890;2023-05-10T00:42:44;5.50;;;3.80;;
41141;SDS011;63666;52.284;20.890;2023-05-10T00:45:26;5.80;;;3.80;;
41141;SDS011;63666;52.284;20.890;2023-05-10T00:48:04;5.90;;;3.70;;
41141;SDS011;63666;52.284;20.890;2023-05-10T00:50:39;5.90;;;3.80;;
41141;SDS011;63666;52.284;20.890;2023-05-10T00:53:14;5.60;;;3.70;;
41141;SDS011;63666;52.284;20.890;2023-05-10T00:55:49;5.60;;;3.60;;
41141;SDS011;63666;52.284;20.890;2023-05-10T00:58:25;5.70;;;3.80;;
41141;SDS011;63666;52.284;20.890;2023-05-10T01:01:03;5.50;;;3.80;;
41141;SDS011;63666;52.284;20.890;2023-05-10T01:03:38;5.90;;;3.80;;
41141;SDS011;63666;52.284;20.890;2023-05-10T01:06:13;6.00;;;4.10;;
41141;SDS011;63666;52.284;20.890;2023-05-10T01:08:48;6.00;;;3.60;;
41141;SDS011;63666;52.284;20.890;2023-05-10T01:11:24;5.50;;;3.60;;
41141;SDS011;63666;52.284;20.890;2023-05-10T01:14:00;5.90;;;3.60;;
41141;SDS011;63666;52.284;20.890;2023-05-10T01:16:38;5.70;;;3.90;;
41141;SDS011;63666;52.284;20.890;2023-05-10T01:19:19;6.00;;;3.70;;
41141;SDS011;63666;52.284;20.890;2023-05-10T01:22:10;5.80;;;3.70;;
41141;SDS011;63666;52.284;20.890;2023-05-10T01:25:15;5.50;;;3.50;;
41141;SDS011;63666;52.284;20.890;2023-05-10T01:34:39;5.00;;;3.50;;
41141;SDS011;63666;52.284;20.890;2023-05-10T01:37:27;5.60;;;3.60;;
41141;SDS011;63666;52.284;20.890;2023-05-10T01:40:13;5.20;;;3.40;;
41141;SDS011;63666;52.284;20.890;2023-05-10T01:42:53;5.00;;;3.60;;
41141;SDS011;63666;52.284;20.890;2023-05-10T01:45:33;5.30;;;3.60;;
41141;SDS011;63666;52.284;20.890;2023-05-10T01:48:14;5.40;;;3.50;;
41141;SDS011;63666;52.284;20.890;2023-05-10T01:50:51;5.10;;;3.30;;
41141;SDS011;63666;52.284;20.890;2023-05-10T01:53:29;5.60;;;3.60;;
41141;SDS011;63666;52.284;20.890;2023-05-10T01:56:05;5.30;;;3.20;;
41141;SDS011;63666;52.284;20.890;2023-05-10T01:58:44;6.00;;;3.40;;
41141;SDS011;63666;52.284;20.890;2023-05-10T02:01:22;5.40;;;3.40;;
41141;SDS011;63666;52.284;20.890;2023-05-10T02:03:59;5.20;;;3.30;;
41141;SDS011;63666;52.284;20.890;2023-05-10T02:06:34;5.50;;;3.40;;
41141;SDS011;63666;52.284;20.890;2023-05-10T02:09:10;5.10;;;3.30;;
41141;SDS011;63666;52.284;20.890;2023-05-10T02:11:46;6.30;;;3.70;;
41141;SDS011;63666;52.284;20.890;2023-05-10T02:14:23;4.90;;;3.10;;
41141;SDS011;63666;52.284;20.890;2023-05-10T02:17:00;5.00;;;3.50;;
41141;SDS011;63666;52.284;20.890;2023-05-10T02:19:38;5.00;;;3.30;;
41141;SDS011;63666;52.284;20.890;2023-05-10T02:22:16;5.00;;;3.30;;
41141;SDS011;63666;52.284;20.890;2023-05-10T02:24:52;5.60;;;3.50;;
41141;SDS011;63666;52.284;20.890;2023-05-10T02:27:28;4.70;;;3.10;;
41141;SDS011;63666;52.284;20.890;2023-05-10T02:30:05;5.30;;;3.40;;
41141;SDS011;63666;52.284;20.890;2023-05-10T02:32:41;5.60;;;3.50;;
41141;SDS011;63666;52.284;20.890;2023-05-10T02:35:16;5.40;;;3.40;;
41141;SDS011;63666;52.284;20.890;2023-05-10T02:37:52;4.90;;;3.30;;
41141;SDS011;63666;52.284;20.890;2023-05-10T02:40:29;5.30;;;3.40;;
41141;SDS011;63666;52.284;20.890;2023-05-10T02:43:07;5.50;;;3.40;;
41141;SDS011;63666;52.284;20.890;2023-05-10T02:45:46;4.90;;;3.00;;
41141;SDS011;63666;52.284;20.890;2023-05-10T02:48:22;5.40;;;3.40;;
41141;SDS011;63666;52.284;20.890;2023-05-10T02:51:03;5.00;;;3.20;;
41141;SDS011;63666;52.284;20.890;2023-05-10T02:53:40;5.50;;;3.60;;
41141;SDS011;63666;52.284;20.890;2023-05-10T02:56:20;5.10;;;3.20;;
41141;SDS011;63666;52.284;20.890;2023-05-10T02:59:00;5.80;;;3.40;;
41141;SDS011;63666;52.284;20.890;2023-05-10T03:01:36;5.10;;;3.10;;
41141;SDS011;63666;52.284;20.890;2023-05-10T03:04:11;5.40;;;3.40;;
41141;SDS011;63666;52.284;20.890;2023-05-10T03:06:47;5.30;;;3.30;;
41141;SDS011;63666;52.284;20.890;2023-05-10T03:09:22;5.70;;;3.80;;
41141;SDS011;63666;52.284;20.890;2023-05-10T03:12:07;5.20;;;3.40;;
41141;SDS011;63666;52.284;20.890;2023-05-10T03:14:53;5.20;;;3.30;;
41141;SDS011;63666;52.284;20.890;2023-05-10T03:17:35;5.50;;;3.30;;
41141;SDS011;63666;52.284;20.890;2023-05-10T03:20:22;4.80;;;3.00;;
41141;SDS011;63666;52.284;20.890;2023-05-10T03:23:07;5.90;;;3.30;;
41141;SDS011;63666;52.284;20.890;2023-05-10T03:25:48;5.10;;;3.20;;
41141;SDS011;63666;52.284;20.890;2023-05-10T03:28:27;5.20;;;3.40;;
41141;SDS011;63666;52.284;20.890;2023-05-10T03:31:03;5.40;;;3.20;;
41141;SDS011;63666;52.284;20.890;2023-05-10T03:33:47;5.10;;;3.30;;
41141;SDS011;63666;52.284;20.890;2023-05-10T03:36:23;5.10;;;3.20;;
41141;SDS011;63666;52.284;20.890;2023-05-10T03:38:58;4.60;;;2.90;;
41141;SDS011;63666;52.284;20.890;2023-05-10T03:41:35;4.70;;;3.20;;
41141;SDS011;63666;52.284;20.890;2023-05-10T03:44:14;4.90;;;3.20;;
41141;SDS011;63666;52.284;20.890;2023-05-10T03:46:50;4.80;;;3.10;;
41141;SDS011;63666;52.284;20.890;2023-05-10T03:49:26;5.80;;;3.50;;
41141;SDS011;63666;52.284;20.890;2023-05-10T03:52:06;4.90;;;3.20;;
41141;SDS011;63666;52.284;20.890;2023-05-10T03:54:42;4.70;;;3.00;;
41141;SDS011;63666;52.284;20.890;2023-05-10T03:57:16;5.30;;;3.20;;
41141;SDS011;63666;52.284;20.890;2023-05-10T03:59:51;5.20;;;3.40;;
41141;SDS011;63666;52.284;20.890;2023-05-10T04:02:26;5.00;;;3.00;;
41141;SDS011;63666;52.284;20.890;2023-05-10T04:05:02;5.20;;;3.10;;
41141;SDS011;63666;52.284;20.890;2023-05-10T04:07:37;4.60;;;2.90;;
41141;SDS011;63666;52.284;20.890;2023-05-10T04:10:14;5.80;;;3.20;;
41141;SDS011;63666;52.284;20.890;2023-05-10T04:12:48;5.10;;;3.00;;
41141;SDS011;63666;52.284;20.890;2023-05-10T04:15:22;4.80;;;2.90;;
41141;SDS011;63666;52.284;20.890;2023-05-10T04:17:58;5.00;;;3.00;;
41141;SDS011;63666;52.284;20.890;2023-05-10T04:20:33;5.50;;;3.10;;
41141;SDS011;63666;52.284;20.890;2023-05-10T04:23:08;5.60;;;3.10;;
41141;SDS011;63666;52.284;20.890;2023-05-10T04:25:43;5.40;;;3.30;;
41141;SDS011;63666;52.284;20.890;2023-05-10T04:28:17;5.60;;;3.00;;
41141;SDS011;63666;52.284;20.890;2023-05-10T04:30:53;6.20;;;3.40;;
41141;SDS011;63666;52.284;20.890;2023-05-10T04:33:28;6.20;;;3.30;;
41141;SDS011;63666;52.284;20.890;2023-05-10T04:36:05;6.70;;;3.20;;
41141;SDS011;63666;52.284;20.890;2023-05-10T04:38:40;5.70;;;3.50;;
41141;SDS011;63666;52.284;20.890;2023-05-10T04:41:14;6.70;;;3.40;;
41141;SDS011;63666;52.284;20.890;2023-05-10T04:43:48;6.40;;;3.40;;
41141;SDS011;63666;52.284;20.890;2023-05-10T04:46:24;6.90;;;3.60;;
41141;SDS011;63666;52.284;20.890;2023-05-10T04:48:58;6.90;;;3.80;;
41141;SDS011;63666;52.284;20.890;2023-05-10T04:51:32;7.40;;;3.80;;
41141;SDS011;63666;52.284;20.890;2023-05-10T04:54:08;6.50;;;3.30;;
41141;SDS011;63666;52.284;20.890;2023-05-10T04:56:43;7.60;;;3.80;;
41141;SDS011;63666;52.284;20.890;2023-05-10T04:59:18;7.40;;;3.50;;
41141;SDS011;63666;52.284;20.890;2023-05-10T05:01:55;7.50;;;3.70;;
41141;SDS011;63666;52.284;20.890;2023-05-10T05:04:32;6.80;;;3.60;;
41141;SDS011;63666;52.284;20.890;2023-05-10T05:07:07;6.30;;;3.30;;
41141;SDS011;63666;52.284;20.890;2023-05-10T05:09:43;6.70;;;3.30;;
41141;SDS011;63666;52.284;20.890;2023-05-10T05:12:17;6.20;;;3.50;;
41141;SDS011;63666;52.284;20.890;2023-05-10T05:14:51;5.50;;;3.30;;
41141;SDS011;63666;52.284;20.890;2023-05-10T05:17:25;6.40;;;3.50;;
41141;SDS011;63666;52.284;20.890;2023-05-10T05:19:59;5.70;;;3.40;;
41141;SDS011;63666;52.284;20.890;2023-05-10T05:22:35;5.80;;;3.50;;
41141;SDS011;63666;52.284;20.890;2023-05-10T05:25:10;6.40;;;3.40;;
41141;SDS011;63666;52.284;20.890;2023-05-10T05:27:45;6.80;;;3.30;;
41141;SDS011;63666;52.284;20.890;2023-05-10T05:30:19;5.90;;;3.40;;
41141;SDS011;63666;52.284;20.890;2023-05-10T05:32:54;5.50;;;3.10;;
41141;SDS011;63666;52.284;20.890;2023-05-10T05:35:28;6.40;;;3.40;;
41141;SDS011;63666;52.284;20.890;2023-05-10T05:38:02;6.30;;;3.40;;
41141;SDS011;63666;52.284;20.890;2023-05-10T05:40:40;5.50;;;3.10;;
41141;SDS011;63666;52.284;20.890;2023-05-10T05:43:14;5.40;;;3.10;;
41141;SDS011;63666;52.284;20.890;2023-05-10T05:45:49;5.10;;;3.20;;
41141;SDS011;63666;52.284;20.890;2023-05-10T05:48:23;5.30;;;3.10;;
41141;SDS011;63666;52.284;20.890;2023-05-10T05:50:59;5.90;;;3.30;;
41141;SDS011;63666;52.284;20.890;2023-05-10T05:53:37;5.70;;;3.10;;
41141;SDS011;63666;52.284;20.890;2023-05-10T05:56:13;5.20;;;2.90;;
41141;SDS011;63666;52.284;20.890;2023-05-10T05:58:53;6.00;;;3.20;;
41141;SDS011;63666;52.284;20.890;2023-05-10T06:01:27;5.10;;;3.10;;
41141;SDS011;63666;52.284;20.890;2023-05-10T06:04:03;6.40;;;3.40;;
41141;SDS011;63666;52.284;20.890;2023-05-10T06:06:38;5.00;;;3.20;;
41141;SDS011;63666;52.284;20.890;2023-05-10T06:09:15;5.40;;;3.00;;
41141;SDS011;63666;52.284;20.890;2023-05-10T06:11:49;5.00;;;3.00;;
41141;SDS011;63666;52.284;20.890;2023-05-10T06:14:24;5.50;;;3.30;;
41141;SDS011;63666;52.284;20.890;2023-05-10T06:17:00;5.30;;;2.90;;
41141;SDS011;63666;52.284;20.890;2023-05-10T06:19:36;5.60;;;3.00;;
41141;SDS011;63666;52.284;20.890;2023-05-10T06:22:12;4.90;;;3.00;;
41141;SDS011;63666;52.284;20.890;2023-05-10T06:24:46;5.10;;;2.80;;
41141;SDS011;63666;52.284;20.890;2023-05-10T06:27:21;5.60;;;2.90;;
41141;SDS011;63666;52.284;20.890;2023-05-10T06:29:56;5.30;;;2.90;;
41141;SDS011;63666;52.284;20.890;2023-05-10T06:32:42;5.00;;;2.90;;
41141;SDS011;63666;52.284;20.890;2023-05-10T06:35:19;5.30;;;3.00;;
41141;SDS011;63666;52.284;20.890;2023-05-10T06:37:55;5.20;;;3.00;;
41141;SDS011;63666;52.284;20.890;2023-05-10T06:40:28;5.40;;;3.00;;
41141;SDS011;63666;52.284;20.890;2023-05-10T06:43:04;5.10;;;3.20;;
41141;SDS011;63666;52.284;20.890;2023-05-10T06:45:38;5.00;;;2.90;;
41141;SDS011;63666;52.284;20.890;2023-05-10T06:48:13;6.00;;;3.10;;
41141;SDS011;63666;52.284;20.890;2023-05-10T06:50:48;5.10;;;3.00;;
41141;SDS011;63666;52.284;20.890;2023-05-10T06:53:22;5.50;;;3.20;;
41141;SDS011;63666;52.284;20.890;2023-05-10T06:55:56;5.10;;;3.10;;
41141;SDS011;63666;52.284;20.890;2023-05-10T06:58:31;4.80;;;3.00;;
41141;SDS011;63666;52.284;20.890;2023-05-10T07:01:07;5.00;;;3.10;;
41141;SDS011;63666;52.284;20.890;2023-05-10T07:03:45;6.30;;;3.20;;
41141;SDS011;63666;52.284;20.890;2023-05-10T07:06:19;5.50;;;3.40;;
41141;SDS011;63666;52.284;20.890;2023-05-10T07:09:06;5.50;;;3.30;;
41141;SDS011;63666;52.284;20.890;2023-05-10T07:11:41;6.30;;;3.10;;
41141;SDS011;63666;52.284;20.890;2023-05-10T07:14:17;6.20;;;3.50;;
41141;SDS011;63666;52.284;20.890;2023-05-10T07:16:51;5.60;;;3.10;;
41141;SDS011;63666;52.284;20.890;2023-05-10T07:19:26;5.30;;;3.20;;
41141;SDS011;63666;52.284;20.890;2023-05-10T07:22:00;5.60;;;3.30;;
41141;SDS011;63666;52.284;20.890;2023-05-10T07:24:34;6.80;;;3.60;;
41141;SDS011;63666;52.284;20.890;2023-05-10T07:27:10;5.80;;;3.40;;
41141;SDS011;63666;52.284;20.890;2023-05-10T07:29:44;6.20;;;2.90;;
41141;SDS011;63666;52.284;20.890;2023-05-10T07:32:18;5.80;;;3.40;;
41141;SDS011;63666;52.284;20.890;2023-05-10T07:34:53;5.10;;;2.80;;
41141;SDS011;63666;52.284;20.890;2023-05-10T07:37:27;5.80;;;3.40;;
41141;SDS011;63666;52.284;20.890;2023-05-10T07:40:01;5.00;;;2.90;;
41141;SDS011;63666;52.284;20.890;2023-05-10T07:42:35;4.70;;;2.70;;
41141;SDS011;63666;52.284;20.890;2023-05-10T07:45:10;5.10;;;2.90;;
41141;SDS011;63666;52.284;20.890;2023-05-10T07:47:48;5.80;;;2.90;;
41141;SDS011;63666;52.284;20.890;2023-05-10T07:50:22;4.70;;;2.90;;
41141;SDS011;63666;52.284;20.890;2023-05-10T07:52:55;5.00;;;2.60;;
41141;SDS011;63666;52.284;20.890;2023-05-10T07:55:29;4.90;;;2.60;;
41141;SDS011;63666;52.284;20.890;2023-05-10T07:58:04;4.60;;;2.60;;
41141;SDS011;63666;52.284;20.890;2023-05-10T08:00:38;4.80;;;2.40;;
41141;SDS011;63666;52.284;20.890;2023-05-10T08:03:12;4.50;;;2.40;;
41141;SDS011;63666;52.284;20.890;2023-05-10T08:05:49;5.10;;;2.50;;
41141;SDS011;63666;52.284;20.890;2023-05-10T08:08:29;4.90;;;2.50;;
41141;SDS011;63666;52.284;20.890;2023-05-10T08:11:03;5.00;;;2.40;;
41141;SDS011;63666;52.284;20.890;2023-05-10T08:13:37;4.90;;;2.50;;
41141;SDS011;63666;52.284;20.890;2023-05-10T08:16:10;4.70;;;2.40;;
41141;SDS011;63666;52.284;20.890;2023-05-10T08:18:47;4.60;;;2.30;;
41141;SDS011;63666;52.284;20.890;2023-05-10T08:21:26;5.20;;;2.40;;
41141;SDS011;63666;52.284;20.890;2023-05-10T08:24:04;4.70;;;2.40;;
41141;SDS011;63666;52.284;20.890;2023-05-10T08:26:39;4.80;;;2.30;;
41141;SDS011;63666;52.284;20.890;2023-05-10T08:29:14;4.10;;;2.10;;
41141;SDS011;63666;52.284;20.890;2023-05-10T08:31:47;4.50;;;2.30;;
41141;SDS011;63666;52.284;20.890;2023-05-10T08:34:21;4.10;;;2.10;;
41141;SDS011;63666;52.284;20.890;2023-05-10T08:36:56;4.60;;;2.20;;
41141;SDS011;63666;52.284;20.890;2023-05-10T08:39:33;4.00;;;2.00;;
41141;SDS011;63666;52.284;20.890;2023-05-10T08:42:12;4.80;;;2.20;;
41141;SDS011;63666;52.284;20.890;2023-05-10T08:44:55;4.00;;;2.10;;
41141;SDS011;63666;52.284;20.890;2023-05-10T08:47:30;4.00;;;2.10;;
41141;SDS011;63666;52.284;20.890;2023-05-10T08:50:09;4.30;;;2.00;;
41141;SDS011;63666;52.284;20.890;2023-05-10T08:52:45;5.20;;;2.00;;
41141;SDS011;63666;52.284;20.890;2023-05-10T08:55:22;4.50;;;1.90;;
41141;SDS011;63666;52.284;20.890;2023-05-10T08:57:58;5.20;;;2.00;;
41141;SDS011;63666;52.284;20.890;2023-05-10T09:00:33;3.60;;;1.90;;
41141;SDS011;63666;52.284;20.890;2023-05-10T09:03:08;4.40;;;2.10;;
41141;SDS011;63666;52.284;20.890;2023-05-10T09:05:43;4.30;;;2.10;;
41141;SDS011;63666;52.284;20.890;2023-05-10T09:08:21;4.20;;;2.00;;
41141;SDS011;63666;52.284;20.890;2023-05-10T09:10:58;3.90;;;1.80;;
41141;SDS011;63666;52.284;20.890;2023-05-10T09:13:36;4.20;;;1.90;;
41141;SDS011;63666;52.284;20.890;2023-05-10T09:16:09;4.20;;;1.70;;
41141;SDS011;63666;52.284;20.890;2023-05-10T09:18:51;3.90;;;1.70;;
41141;SDS011;63666;52.284;20.890;2023-05-10T09:21:25;4.40;;;1.80;;
41141;SDS011;63666;52.284;20.890;2023-05-10T09:23:59;4.40;;;1.80;;
41141;SDS011;63666;52.284;20.890;2023-05-10T09:26:39;4.10;;;1.90;;
41141;SDS011;63666;52.284;20.890;2023-05-10T09:29:18;3.80;;;1.60;;
41141;SDS011;63666;52.284;20.890;2023-05-10T09:31:56;3.30;;;1.60;;
41141;SDS011;63666;52.284;20.890;2023-05-10T09:34:30;3.70;;;1.60;;
41141;SDS011;63666;52.284;20.890;2023-05-10T09:37:08;3.80;;;1.80;;
41141;SDS011;63666;52.284;20.890;2023-05-10T09:39:43;4.20;;;1.80;;
41141;SDS011;63666;52.284;20.890;2023-05-10T09:42:17;3.80;;;1.80;;
41141;SDS011;63666;52.284;20.890;2023-05-10T09:44:52;3.60;;;1.70;;
41141;SDS011;63666;52.284;20.890;2023-05-10T09:47:28;4.10;;;1.60;;
41141;SDS011;63666;52.284;20.890;2023-05-10T09:50:01;4.50;;;1.70;;
41141;SDS011;63666;52.284;20.890;2023-05-10T09:52:45;3.70;;;1.60;;
41141;SDS011;63666;52.284;20.890;2023-05-10T09:55:19;4.20;;;1.60;;
41141;SDS011;63666;52.284;20.890;2023-05-10T09:57:59;4.00;;;1.70;;
41141;SDS011;63666;52.284;20.890;2023-05-10T10:00:35;3.40;;;1.70;;
41141;SDS011;63666;52.284;20.890;2023-05-10T10:06:19;4.00;;;1.70;;
41141;SDS011;63666;52.284;20.890;2023-05-10T10:08:59;4.60;;;1.90;;
41141;SDS011;63666;52.284;20.890;2023-05-10T10:11:31;4.50;;;1.70;;
41141;SDS011;63666;52.284;20.890;2023-05-10T10:14:06;4.40;;;1.60;;
41141;SDS011;63666;52.284;20.890;2023-05-10T10:16:40;3.70;;;1.50;;
41141;SDS011;63666;52.284;20.890;2023-05-10T10:19:35;3.80;;;1.60;;
41141;SDS011;63666;52.284;20.890;2023-05-10T10:22:08;3.90;;;1.70;;
41141;SDS011;63666;52.284;20.890;2023-05-10T10:24:44;3.60;;;1.60;;
41141;SDS011;63666;52.284;20.890;2023-05-10T10:27:22;4.60;;;1.60;;
41141;SDS011;63666;52.284;20.890;2023-05-10T10:30:01;3.90;;;1.60;;
41141;SDS011;63666;52.284;20.890;2023-05-10T10:32:47;4.20;;;1.70;;
41141;SDS011;63666;52.284;20.890;2023-05-10T10:35:46;3.60;;;1.80;;
41141;SDS011;63666;52.284;20.890;2023-05-10T10:38:23;4.40;;;1.70;;
41141;SDS011;63666;52.284;20.890;2023-05-10T10:41:03;4.70;;;1.80;;
41141;SDS011;63666;52.284;20.890;2023-05-10T10:43:45;4.10;;;1.60;;
41141;SDS011;63666;52.284;20.890;2023-05-10T10:46:18;4.20;;;1.50;;
41141;SDS011;63666;52.284;20.890;2023-05-10T10:52:12;4.00;;;1.60;;
41141;SDS011;63666;52.284;20.890;2023-05-10T10:54:52;4.10;;;1.60;;
41141;SDS011;63666;52.284;20.890;2023-05-10T10:57:31;4.00;;;1.50;;
41141;SDS011;63666;52.284;20.890;2023-05-10T11:00:25;4.50;;;1.70;;
41141;SDS011;63666;52.284;20.890;2023-05-10T11:03:03;3.70;;;1.50;;
41141;SDS011;63666;52.284;20.890;2023-05-10T11:05:39;3.10;;;1.50;;
41141;SDS011;63666;52.284;20.890;2023-05-10T11:08:20;3.80;;;1.60;;
41141;SDS011;63666;52.284;20.890;2023-05-10T11:11:08;4.10;;;1.60;;
41141;SDS011;63666;52.284;20.890;2023-05-10T11:13:47;4.20;;;1.60;;
41141;SDS011;63666;52.284;20.890;2023-05-10T11:16:23;3.40;;;1.70;;
41141;SDS011;63666;52.284;20.890;2023-05-10T11:19:05;3.50;;;1.60;;
41141;SDS011;63666;52.284;20.890;2023-05-10T11:21:48;3.80;;;1.70;;
41141;SDS011;63666;52.284;20.890;2023-05-10T11:24:29;3.20;;;1.60;;
41141;SDS011;63666;52.284;20.890;2023-05-10T11:27:06;3.90;;;1.50;;
41141;SDS011;63666;52.284;20.890;2023-05-10T11:29:39;4.40;;;1.60;;
41141;SDS011;63666;52.284;20.890;2023-05-10T11:32:17;3.90;;;1.70;;
41141;SDS011;63666;52.284;20.890;2023-05-10T11:34:55;4.20;;;1.70;;
41141;SDS011;63666;52.284;20.890;2023-05-10T11:37:30;4.00;;;1.60;;
41141;SDS011;63666;52.284;20.890;2023-05-10T11:40:06;4.20;;;1.50;;
41141;SDS011;63666;52.284;20.890;2023-05-10T11:42:42;3.20;;;1.40;;
41141;SDS011;63666;52.284;20.890;2023-05-10T11:45:16;5.00;;;1.60;;
41141;SDS011;63666;52.284;20.890;2023-05-10T11:47:52;4.30;;;1.60;;
41141;SDS011;63666;52.284;20.890;2023-05-10T11:50:28;3.50;;;1.50;;
41141;SDS011;63666;52.284;20.890;2023-05-10T11:53:01;3.40;;;1.50;;
41141;SDS011;63666;52.284;20.890;2023-05-10T11:55:36;3.10;;;1.40;;
41141;SDS011;63666;52.284;20.890;2023-05-10T11:58:11;3.70;;;1.50;;
41141;SDS011;63666;52.284;20.890;2023-05-10T12:00:47;3.70;;;1.50;;
41141;SDS011;63666;52.284;20.890;2023-05-10T12:03:23;3.70;;;1.50;;
41141;SDS011;63666;52.284;20.890;2023-05-10T12:05:58;2.80;;;1.40;;
41141;SDS011;63666;52.284;20.890;2023-05-10T12:08:43;3.50;;;1.50;;
41141;SDS011;63666;52.284;20.890;2023-05-10T12:11:29;3.20;;;1.50;;
41141;SDS011;63666;52.284;20.890;2023-05-10T12:14:05;4.20;;;1.60;;
41141;SDS011;63666;52.284;20.890;2023-05-10T12:16:42;5.40;;;1.70;;
41141;SDS011;63666;52.284;20.890;2023-05-10T12:19:19;3.60;;;1.60;;
41141;SDS011;63666;52.284;20.890;2023-05-10T12:21:53;4.00;;;1.80;;
41141;SDS011;63666;52.284;20.890;2023-05-10T12:24:26;4.00;;;1.80;;
41141;SDS011;63666;52.284;20.890;2023-05-10T12:27:03;4.40;;;1.70;;
41141;SDS011;63666;52.284;20.890;2023-05-10T12:29:42;3.60;;;1.80;;
41141;SDS011;63666;52.284;20.890;2023-05-10T12:32:16;4.10;;;1.70;;
41141;SDS011;63666;52.284;20.890;2023-05-10T12:34:51;3.90;;;2.00;;
41141;SDS011;63666;52.284;20.890;2023-05-10T12:37:30;4.10;;;1.80;;
41141;SDS011;63666;52.284;20.890;2023-05-10T12:40:08;4.60;;;1.70;;
41141;SDS011;63666;52.284;20.890;2023-05-10T12:42:42;3.50;;;1.60;;
41141;SDS011;63666;52.284;20.890;2023-05-10T12:45:18;4.30;;;1.90;;
41141;SDS011;63666;52.284;20.890;2023-05-10T12:47:52;4.30;;;2.20;;
41141;SDS011;63666;52.284;20.890;2023-05-10T12:50:26;3.40;;;1.80;;
41141;SDS011;63666;52.284;20.890;2023-05-10T12:52:59;4.90;;;2.00;;
41141;SDS011;63666;52.284;20.890;2023-05-10T12:55:34;4.20;;;2.10;;
41141;SDS011;63666;52.284;20.890;2023-05-10T12:58:07;4.20;;;2.00;;
41141;SDS011;63666;52.284;20.890;2023-05-10T13:00:43;5.20;;;2.10;;
41141;SDS011;63666;52.284;20.890;2023-05-10T13:03:16;5.90;;;2.10;;
41141;SDS011;63666;52.284;20.890;2023-05-10T13:05:50;4.60;;;2.10;;
41141;SDS011;63666;52.284;20.890;2023-05-10T13:08:23;4.10;;;2.00;;
41141;SDS011;63666;52.284;20.890;2023-05-10T13:11:00;4.30;;;1.90;;
41141;SDS011;63666;52.284;20.890;2023-05-10T13:13:34;3.80;;;1.80;;
41141;SDS011;63666;52.284;20.890;2023-05-10T13:16:08;4.20;;;1.90;;
41141;SDS011;63666;52.284;20.890;2023-05-10T13:18:42;4.20;;;2.00;;
41141;SDS011;63666;52.284;20.890;2023-05-10T13:21:15;4.10;;;2.00;;
41141;SDS011;63666;52.284;20.890;2023-05-10T13:23:48;3.60;;;1.70;;
41141;SDS011;63666;52.284;20.890;2023-05-10T13:26:22;4.60;;;2.00;;
41141;SDS011;63666;52.284;20.890;2023-05-10T13:28:55;4.50;;;2.00;;
41141;SDS011;63666;52.284;20.890;2023-05-10T13:31:29;4.50;;;2.00;;
41141;SDS011;63666;52.284;20.890;2023-05-10T13:34:03;4.50;;;1.90;;
41141;SDS011;63666;52.284;20.890;2023-05-10T13:36:36;4.30;;;1.80;;
41141;SDS011;63666;52.284;20.890;2023-05-10T13:39:09;4.50;;;1.90;;
41141;SDS011;63666;52.284;20.890;2023-05-10T13:41:44;4.70;;;2.00;;
41141;SDS011;63666;52.284;20.890;2023-05-10T13:44:19;5.10;;;2.00;;
41141;SDS011;63666;52.284;20.890;2023-05-10T13:46:54;4.40;;;1.80;;
41141;SDS011;63666;52.284;20.890;2023-05-10T13:49:29;4.50;;;1.90;;
41141;SDS011;63666;52.284;20.890;2023-05-10T13:52:03;3.60;;;1.70;;
41141;SDS011;63666;52.284;20.890;2023-05-10T13:54:37;3.70;;;1.80;;
41141;SDS011;63666;52.284;20.890;2023-05-10T13:57:11;4.40;;;1.70;;
41141;SDS011;63666;52.284;20.890;2023-05-10T13:59:44;4.80;;;2.00;;
41141;SDS011;63666;52.284;20.890;2023-05-10T14:02:18;4.40;;;1.90;;
41141;SDS011;63666;52.284;20.890;2023-05-10T14:04:52;5.10;;;2.20;;
41141;SDS011;63666;52.284;20.890;2023-05-10T14:07:33;3.90;;;1.90;;
41141;SDS011;63666;52.284;20.890;2023-05-10T14:10:10;4.80;;;2.00;;
41141;SDS011;63666;52.284;20.890;2023-05-10T14:12:44;5.10;;;2.30;;
41141;SDS011;63666;52.284;20.890;2023-05-10T14:15:18;6.20;;;2.10;;
41141;SDS011;63666;52.284;20.890;2023-05-10T14:17:53;5.20;;;2.30;;
41141;SDS011;63666;52.284;20.890;2023-05-10T14:20:28;4.60;;;2.30;;
41141;SDS011;63666;52.284;20.890;2023-05-10T14:23:02;5.60;;;2.30;;
41141;SDS011;63666;52.284;20.890;2023-05-10T14:25:36;4.80;;;2.30;;
41141;SDS011;63666;52.284;20.890;2023-05-10T14:28:11;5.30;;;2.40;;
41141;SDS011;63666;52.284;20.890;2023-05-10T14:30:44;4.30;;;2.10;;
41141;SDS011;63666;52.284;20.890;2023-05-10T14:33:18;6.30;;;2.30;;
41141;SDS011;63666;52.284;20.890;2023-05-10T14:35:53;5.10;;;2.20;;
41141;SDS011;63666;52.284;20.890;2023-05-10T14:38:30;5.20;;;2.30;;
41141;SDS011;63666;52.284;20.890;2023-05-10T14:41:04;4.80;;;2.00;;
41141;SDS011;63666;52.284;20.890;2023-05-10T14:43:41;4.50;;;2.10;;
41141;SDS011;63666;52.284;20.890;2023-05-10T14:46:14;4.80;;;2.50;;
41141;SDS011;63666;52.284;20.890;2023-05-10T14:48:47;4.70;;;2.10;;
41141;SDS011;63666;52.284;20.890;2023-05-10T14:51:22;4.90;;;2.30;;
41141;SDS011;63666;52.284;20.890;2023-05-10T14:53:55;4.20;;;2.00;;
41141;SDS011;63666;52.284;20.890;2023-05-10T14:56:30;4.80;;;2.20;;
41141;SDS011;63666;52.284;20.890;2023-05-10T14:59:04;5.00;;;2.10;;
41141;SDS011;63666;52.284;20.890;2023-05-10T15:01:40;5.80;;;2.30;;
41141;SDS011;63666;52.284;20.890;2023-05-10T15:04:20;4.60;;;2.20;;
41141;SDS011;63666;52.284;20.890;2023-05-10T15:06:58;4.50;;;2.10;;
41141;SDS011;63666;52.284;20.890;2023-05-10T15:09:32;4.10;;;2.30;;
41141;SDS011;63666;52.284;20.890;2023-05-10T15:12:07;4.50;;;2.10;;
41141;SDS011;63666;52.284;20.890;2023-05-10T15:14:40;4.00;;;2.10;;
41141;SDS011;63666;52.284;20.890;2023-05-10T15:17:14;4.30;;;1.90;;
41141;SDS011;63666;52.284;20.890;2023-05-10T15:19:49;4.80;;;2.20;;
41141;SDS011;63666;52.284;20.890;2023-05-10T15:22:25;3.90;;;1.90;;
41141;SDS011;63666;52.284;20.890;2023-05-10T15:25:03;4.00;;;1.90;;
41141;SDS011;63666;52.284;20.890;2023-05-10T15:27:39;3.50;;;1.90;;
41141;SDS011;63666;52.284;20.890;2023-05-10T15:30:15;3.70;;;1.80;;
41141;SDS011;63666;52.284;20.890;2023-05-10T15:32:50;3.90;;;1.90;;
41141;SDS011;63666;52.284;20.890;2023-05-10T15:35:25;3.80;;;2.00;;
41141;SDS011;63666;52.284;20.890;2023-05-10T15:37:58;5.70;;;2.00;;
41141;SDS011;63666;52.284;20.890;2023-05-10T15:40:33;3.80;;;1.70;;